sensor_id;sensor_type;location;lat;lon;timestamp;P1;durP1;ratioP1;P2;durP2;ratioP2
26578;SDS011;14227;47.674;19.320;2023-08-06T00:01:50;281.30;;;78.57;;
26578;SDS011;14227;47.674;19.320;2023-08-06T00:04:16;279.73;;;78.25;;
26578;SDS011;14227;47.674;19.320;2023-08-06T00:06:42;402.13;;;97.10;;
26578;SDS011;14227;47.674;19.320;2023-08-06T00:09:08;313.42;;;86.05;;
26578;SDS011;14227;47.674;19.320;2023-08-06T00:11:33;219.90;;;74.68;;
26578;SDS011;14227;47.674;19.320;2023-08-06T00:13:59;386.25;;;91.70;;
26578;SDS011;14227;47.674;19.320;2023-08-06T00:16:25;412.67;;;97.88;;
26578;SDS011;14227;47.674;19.320;2023-08-06T00:18:50;333.25;;;86.70;;
26578;SDS011;14227;47.674;19.320;2023-08-06T00:21:16;221.15;;;75.13;;
26578;SDS011;14227;47.674;19.320;2023-08-06T00:23:42;198.13;;;69.45;;
26578;SDS011;14227;47.674;19.320;2023-08-06T00:26:07;333.70;;;81.95;;
26578;SDS011;14227;47.674;19.320;2023-08-06T00:28:33;322.48;;;80.43;;
26578;SDS011;14227;47.674;19.320;2023-08-06T00:30:59;393.33;;;89.30;;
26578;SDS011;14227;47.674;19.320;2023-08-06T00:33:24;357.13;;;89.45;;
26578;SDS011;14227;47.674;19.320;2023-08-06T00:35:50;413.13;;;99.13;;
26578;SDS011;14227;47.674;19.320;2023-08-06T00:38:16;348.13;;;88.47;;
26578;SDS011;14227;47.674;19.320;2023-08-06T00:40:42;363.65;;;89.43;;
26578;SDS011;14227;47.674;19.320;2023-08-06T00:43:08;439.20;;;96.75;;
26578;SDS011;14227;47.674;19.320;2023-08-06T00:45:34;290.42;;;81.38;;
26578;SDS011;14227;47.674;19.320;2023-08-06T00:48:01;566.60;;;112.85;;
26578;SDS011;14227;47.674;19.320;2023-08-06T00:50:29;411.73;;;96.57;;
26578;SDS011;14227;47.674;19.320;2023-08-06T00:52:55;234.90;;;74.95;;
26578;SDS011;14227;47.674;19.320;2023-08-06T00:55:21;364.52;;;88.22;;
26578;SDS011;14227;47.674;19.320;2023-08-06T00:57:47;410.08;;;99.10;;
26578;SDS011;14227;47.674;19.320;2023-08-06T01:00:13;384.13;;;94.45;;
26578;SDS011;14227;47.674;19.320;2023-08-06T01:02:41;221.40;;;71.53;;
26578;SDS011;14227;47.674;19.320;2023-08-06T01:05:07;314.63;;;88.07;;
26578;SDS011;14227;47.674;19.320;2023-08-06T01:07:37;394.75;;;98.80;;
26578;SDS011;14227;47.674;19.320;2023-08-06T01:15:41;531.53;;;108.78;;
26578;SDS011;14227;47.674;19.320;2023-08-06T01:18:12;402.25;;;96.40;;
26578;SDS011;14227;47.674;19.320;2023-08-06T01:20:38;356.05;;;90.07;;
26578;SDS011;14227;47.674;19.320;2023-08-06T01:23:04;363.88;;;91.68;;
26578;SDS011;14227;47.674;19.320;2023-08-06T01:25:30;360.50;;;88.38;;
26578;SDS011;14227;47.674;19.320;2023-08-06T01:28:32;363.58;;;91.28;;
26578;SDS011;14227;47.674;19.320;2023-08-06T01:31:15;443.27;;;97.40;;
26578;SDS011;14227;47.674;19.320;2023-08-06T01:33:55;399.88;;;94.18;;
26578;SDS011;14227;47.674;19.320;2023-08-06T01:36:21;473.48;;;100.93;;
26578;SDS011;14227;47.674;19.320;2023-08-06T01:38:48;386.30;;;91.95;;
26578;SDS011;14227;47.674;19.320;2023-08-06T01:41:13;413.55;;;92.82;;
26578;SDS011;14227;47.674;19.320;2023-08-06T01:43:39;267.80;;;79.35;;
26578;SDS011;14227;47.674;19.320;2023-08-06T01:46:05;385.27;;;92.32;;
26578;SDS011;14227;47.674;19.320;2023-08-06T01:48:30;636.72;;;104.97;;
26578;SDS011;14227;47.674;19.320;2023-08-06T01:50:58;341.95;;;78.45;;
26578;SDS011;14227;47.674;19.320;2023-08-06T02:07:05;84.70;;;34.60;;
26578;SDS011;14227;47.674;19.320;2023-08-06T02:22:29;212.43;;;49.95;;
26578;SDS011;14227;47.674;19.320;2023-08-06T02:24:57;161.38;;;44.75;;
26578;SDS011;14227;47.674;19.320;2023-08-06T02:27:27;95.80;;;33.70;;
26578;SDS011;14227;47.674;19.320;2023-08-06T02:29:53;123.03;;;37.47;;
26578;SDS011;14227;47.674;19.320;2023-08-06T02:32:19;164.45;;;46.38;;
26578;SDS011;14227;47.674;19.320;2023-08-06T02:34:45;124.65;;;40.67;;
26578;SDS011;14227;47.674;19.320;2023-08-06T02:37:11;195.20;;;46.03;;
26578;SDS011;14227;47.674;19.320;2023-08-06T02:39:36;135.02;;;42.55;;
26578;SDS011;14227;47.674;19.320;2023-08-06T02:42:05;140.25;;;43.78;;
26578;SDS011;14227;47.674;19.320;2023-08-06T02:44:32;234.07;;;55.42;;
26578;SDS011;14227;47.674;19.320;2023-08-06T02:46:59;131.40;;;41.20;;
26578;SDS011;14227;47.674;19.320;2023-08-06T02:49:27;158.52;;;46.50;;
26578;SDS011;14227;47.674;19.320;2023-08-06T02:51:53;163.60;;;47.17;;
26578;SDS011;14227;47.674;19.320;2023-08-06T02:54:19;128.75;;;41.60;;
26578;SDS011;14227;47.674;19.320;2023-08-06T02:56:47;134.75;;;43.00;;
26578;SDS011;14227;47.674;19.320;2023-08-06T02:59:13;119.30;;;38.33;;
26578;SDS011;14227;47.674;19.320;2023-08-06T03:01:38;160.05;;;45.75;;
26578;SDS011;14227;47.674;19.320;2023-08-06T03:04:04;139.75;;;42.42;;
26578;SDS011;14227;47.674;19.320;2023-08-06T03:06:32;128.27;;;42.10;;
26578;SDS011;14227;47.674;19.320;2023-08-06T03:09:00;102.55;;;36.70;;
26578;SDS011;14227;47.674;19.320;2023-08-06T03:11:26;168.32;;;42.47;;
26578;SDS011;14227;47.674;19.320;2023-08-06T03:13:52;171.15;;;45.05;;
26578;SDS011;14227;47.674;19.320;2023-08-06T03:16:18;153.38;;;42.83;;
26578;SDS011;14227;47.674;19.320;2023-08-06T03:18:46;174.00;;;45.38;;
26578;SDS011;14227;47.674;19.320;2023-08-06T03:30:27;445.15;;;49.55;;
26578;SDS011;14227;47.674;19.320;2023-08-06T03:36:23;73.82;;;27.77;;
26578;SDS011;14227;47.674;19.320;2023-08-06T03:38:56;60.22;;;24.95;;
26578;SDS011;14227;47.674;19.320;2023-08-06T03:41:23;71.43;;;26.10;;
26578;SDS011;14227;47.674;19.320;2023-08-06T03:43:48;113.40;;;34.15;;
26578;SDS011;14227;47.674;19.320;2023-08-06T03:46:14;104.18;;;31.30;;
26578;SDS011;14227;47.674;19.320;2023-08-06T03:48:41;68.18;;;26.20;;
26578;SDS011;14227;47.674;19.320;2023-08-06T03:51:08;108.60;;;31.65;;
26578;SDS011;14227;47.674;19.320;2023-08-06T03:53:34;34.42;;;17.95;;
26578;SDS011;14227;47.674;19.320;2023-08-06T03:56:08;60.78;;;26.73;;
26578;SDS011;14227;47.674;19.320;2023-08-06T03:58:37;81.20;;;29.33;;
26578;SDS011;14227;47.674;19.320;2023-08-06T04:01:09;74.93;;;28.83;;
26578;SDS011;14227;47.674;19.320;2023-08-06T04:03:36;124.22;;;34.78;;
26578;SDS011;14227;47.674;19.320;2023-08-06T04:06:04;70.97;;;25.85;;
26578;SDS011;14227;47.674;19.320;2023-08-06T04:08:31;48.03;;;22.58;;
26578;SDS011;14227;47.674;19.320;2023-08-06T04:10:58;83.45;;;30.75;;
26578;SDS011;14227;47.674;19.320;2023-08-06T04:16:49;73.28;;;25.45;;
26578;SDS011;14227;47.674;19.320;2023-08-06T04:19:53;44.22;;;19.73;;
26578;SDS011;14227;47.674;19.320;2023-08-06T04:22:23;63.45;;;23.95;;
26578;SDS011;14227;47.674;19.320;2023-08-06T04:24:49;42.08;;;19.98;;
26578;SDS011;14227;47.674;19.320;2023-08-06T04:27:17;62.92;;;21.80;;
26578;SDS011;14227;47.674;19.320;2023-08-06T04:29:48;66.43;;;21.70;;
26578;SDS011;14227;47.674;19.320;2023-08-06T04:32:14;52.97;;;19.08;;
26578;SDS011;14227;47.674;19.320;2023-08-06T04:35:01;39.05;;;15.80;;
26578;SDS011;14227;47.674;19.320;2023-08-06T04:37:37;44.08;;;17.52;;
26578;SDS011;14227;47.674;19.320;2023-08-06T04:53:50;40.47;;;16.80;;
26578;SDS011;14227;47.674;19.320;2023-08-06T04:56:16;28.13;;;13.40;;
26578;SDS011;14227;47.674;19.320;2023-08-06T04:59:03;27.55;;;11.68;;
26578;SDS011;14227;47.674;19.320;2023-08-06T05:01:29;20.48;;;8.85;;
26578;SDS011;14227;47.674;19.320;2023-08-06T05:03:55;37.60;;;11.95;;
26578;SDS011;14227;47.674;19.320;2023-08-06T05:06:20;20.85;;;9.10;;
26578;SDS011;14227;47.674;19.320;2023-08-06T05:08:46;34.72;;;10.65;;
26578;SDS011;14227;47.674;19.320;2023-08-06T05:11:13;28.15;;;10.65;;
26578;SDS011;14227;47.674;19.320;2023-08-06T05:13:39;59.97;;;13.45;;
26578;SDS011;14227;47.674;19.320;2023-08-06T05:16:11;24.23;;;11.40;;
26578;SDS011;14227;47.674;19.320;2023-08-06T05:25:49;51.45;;;21.73;;
26578;SDS011;14227;47.674;19.320;2023-08-06T05:28:17;29.88;;;15.45;;
26578;SDS011;14227;47.674;19.320;2023-08-06T05:43:44;26.08;;;11.00;;
26578;SDS011;14227;47.674;19.320;2023-08-06T05:53:51;25.95;;;8.88;;
26578;SDS011;14227;47.674;19.320;2023-08-06T05:56:17;19.55;;;7.78;;
26578;SDS011;14227;47.674;19.320;2023-08-06T05:58:50;10.43;;;6.40;;
26578;SDS011;14227;47.674;19.320;2023-08-06T06:05:02;5.15;;;3.60;;
26578;SDS011;14227;47.674;19.320;2023-08-06T06:07:42;5.40;;;2.83;;
26578;SDS011;14227;47.674;19.320;2023-08-06T06:11:12;4.82;;;2.70;;
26578;SDS011;14227;47.674;19.320;2023-08-06T06:14:36;4.53;;;2.80;;
26578;SDS011;14227;47.674;19.320;2023-08-06T06:17:08;4.18;;;2.33;;
26578;SDS011;14227;47.674;19.320;2023-08-06T06:20:19;5.75;;;2.58;;
26578;SDS011;14227;47.674;19.320;2023-08-06T06:23:09;12.35;;;4.75;;
26578;SDS011;14227;47.674;19.320;2023-08-06T06:25:49;7.43;;;3.08;;
26578;SDS011;14227;47.674;19.320;2023-08-06T06:28:19;5.90;;;2.60;;
26578;SDS011;14227;47.674;19.320;2023-08-06T06:30:47;3.20;;;2.00;;
26578;SDS011;14227;47.674;19.320;2023-08-06T06:33:13;5.07;;;1.80;;
26578;SDS011;14227;47.674;19.320;2023-08-06T06:35:51;1.13;;;1.02;;
26578;SDS011;14227;47.674;19.320;2023-08-06T06:38:16;3.95;;;1.10;;
26578;SDS011;14227;47.674;19.320;2023-08-06T06:40:42;5.65;;;1.33;;
26578;SDS011;14227;47.674;19.320;2023-08-06T06:43:26;8.45;;;1.60;;
26578;SDS011;14227;47.674;19.320;2023-08-06T06:49:15;13.70;;;2.05;;
26578;SDS011;14227;47.674;19.320;2023-08-06T06:55:08;3.42;;;1.40;;
26578;SDS011;14227;47.674;19.320;2023-08-06T07:01:17;6.03;;;2.53;;
26578;SDS011;14227;47.674;19.320;2023-08-06T07:04:11;4.28;;;2.13;;
26578;SDS011;14227;47.674;19.320;2023-08-06T07:09:50;10.90;;;3.28;;
26578;SDS011;14227;47.674;19.320;2023-08-06T07:41:41;7.03;;;4.30;;
26578;SDS011;14227;47.674;19.320;2023-08-06T07:47:36;10.00;;;5.53;;
26578;SDS011;14227;47.674;19.320;2023-08-06T07:59:53;14.73;;;5.85;;
26578;SDS011;14227;47.674;19.320;2023-08-06T08:02:20;18.92;;;5.95;;
26578;SDS011;14227;47.674;19.320;2023-08-06T08:04:46;113.97;;;14.80;;
26578;SDS011;14227;47.674;19.320;2023-08-06T08:07:13;13.32;;;4.75;;
26578;SDS011;14227;47.674;19.320;2023-08-06T08:09:39;4.45;;;2.80;;
26578;SDS011;14227;47.674;19.320;2023-08-06T08:12:05;11.23;;;4.07;;
26578;SDS011;14227;47.674;19.320;2023-08-06T08:14:31;21.13;;;4.70;;
26578;SDS011;14227;47.674;19.320;2023-08-06T08:17:07;24.73;;;5.65;;
26578;SDS011;14227;47.674;19.320;2023-08-06T08:19:33;5.25;;;2.33;;
26578;SDS011;14227;47.674;19.320;2023-08-06T08:21:59;11.05;;;3.47;;
26578;SDS011;14227;47.674;19.320;2023-08-06T08:24:25;7.82;;;2.60;;
26578;SDS011;14227;47.674;19.320;2023-08-06T08:26:52;5.30;;;1.00;;
26578;SDS011;14227;47.674;19.320;2023-08-06T08:29:21;1.30;;;1.20;;
26578;SDS011;14227;47.674;19.320;2023-08-06T08:31:47;4.20;;;1.50;;
26578;SDS011;14227;47.674;19.320;2023-08-06T08:34:16;1.30;;;1.20;;
26578;SDS011;14227;47.674;19.320;2023-08-06T08:36:42;0.95;;;0.85;;
26578;SDS011;14227;47.674;19.320;2023-08-06T08:39:09;2.58;;;1.40;;
26578;SDS011;14227;47.674;19.320;2023-08-06T08:41:36;1.13;;;0.93;;
26578;SDS011;14227;47.674;19.320;2023-08-06T08:44:08;1.33;;;0.70;;
26578;SDS011;14227;47.674;19.320;2023-08-06T08:46:35;3.83;;;0.82;;
26578;SDS011;14227;47.674;19.320;2023-08-06T08:49:03;0.57;;;0.57;;
26578;SDS011;14227;47.674;19.320;2023-08-06T08:51:29;2.35;;;0.70;;
26578;SDS011;14227;47.674;19.320;2023-08-06T08:54:04;2.35;;;0.70;;
26578;SDS011;14227;47.674;19.320;2023-08-06T08:56:36;4.50;;;0.50;;
26578;SDS011;14227;47.674;19.320;2023-08-06T08:59:02;2.60;;;0.60;;
26578;SDS011;14227;47.674;19.320;2023-08-06T09:01:28;1.00;;;0.52;;
26578;SDS011;14227;47.674;19.320;2023-08-06T09:03:55;3.20;;;0.80;;
26578;SDS011;14227;47.674;19.320;2023-08-06T09:06:23;2.05;;;0.70;;
26578;SDS011;14227;47.674;19.320;2023-08-06T09:08:56;2.42;;;0.77;;
26578;SDS011;14227;47.674;19.320;2023-08-06T09:12:14;0.88;;;0.60;;
26578;SDS011;14227;47.674;19.320;2023-08-06T09:15:06;3.13;;;0.60;;
26578;SDS011;14227;47.674;19.320;2023-08-06T09:25:10;1.15;;;0.60;;
26578;SDS011;14227;47.674;19.320;2023-08-06T09:31:43;2.20;;;0.50;;
26578;SDS011;14227;47.674;19.320;2023-08-06T09:36:58;0.50;;;0.50;;
26578;SDS011;14227;47.674;19.320;2023-08-06T09:39:28;4.53;;;0.40;;
26578;SDS011;14227;47.674;19.320;2023-08-06T09:41:59;12.18;;;1.45;;
26578;SDS011;14227;47.674;19.320;2023-08-06T09:48:05;1.35;;;0.60;;
26578;SDS011;14227;47.674;19.320;2023-08-06T09:54:06;0.63;;;0.40;;
26578;SDS011;14227;47.674;19.320;2023-08-06T09:56:52;0.32;;;0.28;;
26578;SDS011;14227;47.674;19.320;2023-08-06T09:59:47;0.52;;;0.20;;
26578;SDS011;14227;47.674;19.320;2023-08-06T10:14:43;1.15;;;0.65;;
26578;SDS011;14227;47.674;19.320;2023-08-06T10:18:32;0.25;;;0.15;;
26578;SDS011;14227;47.674;19.320;2023-08-06T10:24:25;0.63;;;0.40;;
26578;SDS011;14227;47.674;19.320;2023-08-06T10:30:26;0.30;;;0.30;;
26578;SDS011;14227;47.674;19.320;2023-08-06T10:33:43;0.30;;;0.30;;
26578;SDS011;14227;47.674;19.320;2023-08-06T10:36:12;0.30;;;0.30;;
26578;SDS011;14227;47.674;19.320;2023-08-06T10:39:20;1.90;;;0.45;;
26578;SDS011;14227;47.674;19.320;2023-08-06T10:41:55;0.35;;;0.35;;
26578;SDS011;14227;47.674;19.320;2023-08-06T10:55:11;0.40;;;0.40;;
26578;SDS011;14227;47.674;19.320;2023-08-06T10:58:15;1.15;;;1.00;;
26578;SDS011;14227;47.674;19.320;2023-08-06T11:01:00;1.88;;;0.52;;
26578;SDS011;14227;47.674;19.320;2023-08-06T11:03:45;0.40;;;0.40;;
26578;SDS011;14227;47.674;19.320;2023-08-06T11:06:37;3.13;;;0.43;;
26578;SDS011;14227;47.674;19.320;2023-08-06T11:10:27;0.40;;;0.40;;
26578;SDS011;14227;47.674;19.320;2023-08-06T11:13:48;1.20;;;0.70;;
26578;SDS011;14227;47.674;19.320;2023-08-06T11:16:15;1.92;;;0.68;;
26578;SDS011;14227;47.674;19.320;2023-08-06T11:18:48;0.88;;;0.60;;
26578;SDS011;14227;47.674;19.320;2023-08-06T11:21:39;0.60;;;0.50;;
26578;SDS011;14227;47.674;19.320;2023-08-06T11:24:06;1.65;;;0.40;;
26578;SDS011;14227;47.674;19.320;2023-08-06T11:26:32;1.15;;;0.50;;
26578;SDS011;14227;47.674;19.320;2023-08-06T11:28:58;0.82;;;0.40;;
26578;SDS011;14227;47.674;19.320;2023-08-06T11:32:02;1.38;;;0.40;;
26578;SDS011;14227;47.674;19.320;2023-08-06T11:35:08;0.75;;;0.52;;
26578;SDS011;14227;47.674;19.320;2023-08-06T11:37:39;3.65;;;0.50;;
26578;SDS011;14227;47.674;19.320;2023-08-06T11:40:14;0.52;;;0.52;;
26578;SDS011;14227;47.674;19.320;2023-08-06T11:42:40;2.55;;;0.70;;
26578;SDS011;14227;47.674;19.320;2023-08-06T11:45:07;1.65;;;0.50;;
26578;SDS011;14227;47.674;19.320;2023-08-06T11:47:49;0.82;;;0.40;;
26578;SDS011;14227;47.674;19.320;2023-08-06T11:50:24;2.00;;;0.50;;
26578;SDS011;14227;47.674;19.320;2023-08-06T11:55:41;1.30;;;0.50;;
26578;SDS011;14227;47.674;19.320;2023-08-06T11:58:10;1.42;;;0.60;;
26578;SDS011;14227;47.674;19.320;2023-08-06T12:00:55;4.13;;;0.60;;
26578;SDS011;14227;47.674;19.320;2023-08-06T12:03:22;2.10;;;0.60;;
26578;SDS011;14227;47.674;19.320;2023-08-06T12:06:08;0.40;;;0.40;;
26578;SDS011;14227;47.674;19.320;2023-08-06T12:08:38;0.47;;;0.47;;
26578;SDS011;14227;47.674;19.320;2023-08-06T12:11:08;2.58;;;0.68;;
26578;SDS011;14227;47.674;19.320;2023-08-06T12:13:51;0.35;;;0.35;;
26578;SDS011;14227;47.674;19.320;2023-08-06T12:16:33;1.05;;;0.35;;
26578;SDS011;14227;47.674;19.320;2023-08-06T12:19:01;0.63;;;0.38;;
26578;SDS011;14227;47.674;19.320;2023-08-06T12:21:26;0.50;;;0.45;;
26578;SDS011;14227;47.674;19.320;2023-08-06T12:23:52;1.00;;;0.60;;
26578;SDS011;14227;47.674;19.320;2023-08-06T12:26:40;0.47;;;0.30;;
26578;SDS011;14227;47.674;19.320;2023-08-06T12:29:12;1.02;;;0.63;;
26578;SDS011;14227;47.674;19.320;2023-08-06T12:31:38;4.47;;;0.43;;
26578;SDS011;14227;47.674;19.320;2023-08-06T12:34:03;0.40;;;0.35;;
26578;SDS011;14227;47.674;19.320;2023-08-06T12:36:32;1.02;;;0.50;;
26578;SDS011;14227;47.674;19.320;2023-08-06T12:39:04;0.38;;;0.30;;
26578;SDS011;14227;47.674;19.320;2023-08-06T12:41:35;0.52;;;0.30;;
26578;SDS011;14227;47.674;19.320;2023-08-06T12:44:01;0.60;;;0.25;;
26578;SDS011;14227;47.674;19.320;2023-08-06T12:46:27;1.20;;;0.38;;
26578;SDS011;14227;47.674;19.320;2023-08-06T12:48:52;1.67;;;0.40;;
26578;SDS011;14227;47.674;19.320;2023-08-06T12:51:18;0.98;;;0.30;;
26578;SDS011;14227;47.674;19.320;2023-08-06T12:53:47;0.40;;;0.30;;
26578;SDS011;14227;47.674;19.320;2023-08-06T12:56:22;2.17;;;0.40;;
26578;SDS011;14227;47.674;19.320;2023-08-06T12:58:54;0.32;;;0.32;;
26578;SDS011;14227;47.674;19.320;2023-08-06T13:01:22;2.88;;;0.30;;
26578;SDS011;14227;47.674;19.320;2023-08-06T13:03:48;3.17;;;0.40;;
26578;SDS011;14227;47.674;19.320;2023-08-06T13:06:18;3.28;;;0.60;;
26578;SDS011;14227;47.674;19.320;2023-08-06T13:08:46;0.47;;;0.40;;
26578;SDS011;14227;47.674;19.320;2023-08-06T13:11:13;0.35;;;0.35;;
26578;SDS011;14227;47.674;19.320;2023-08-06T13:13:45;1.58;;;0.40;;
26578;SDS011;14227;47.674;19.320;2023-08-06T13:16:10;0.32;;;0.32;;
26578;SDS011;14227;47.674;19.320;2023-08-06T13:18:36;5.35;;;0.60;;
26578;SDS011;14227;47.674;19.320;2023-08-06T13:21:02;0.40;;;0.40;;
26578;SDS011;14227;47.674;19.320;2023-08-06T13:23:28;0.52;;;0.30;;
26578;SDS011;14227;47.674;19.320;2023-08-06T13:25:54;2.38;;;0.40;;
26578;SDS011;14227;47.674;19.320;2023-08-06T13:28:37;1.13;;;0.50;;
26578;SDS011;14227;47.674;19.320;2023-08-06T13:31:05;2.05;;;0.50;;
26578;SDS011;14227;47.674;19.320;2023-08-06T13:33:31;0.55;;;0.40;;
26578;SDS011;14227;47.674;19.320;2023-08-06T13:36:03;1.17;;;0.50;;
26578;SDS011;14227;47.674;19.320;2023-08-06T13:38:30;2.40;;;0.40;;
26578;SDS011;14227;47.674;19.320;2023-08-06T13:40:56;2.15;;;0.57;;
26578;SDS011;14227;47.674;19.320;2023-08-06T13:43:26;0.60;;;0.50;;
26578;SDS011;14227;47.674;19.320;2023-08-06T13:45:53;1.08;;;0.57;;
26578;SDS011;14227;47.674;19.320;2023-08-06T13:48:18;0.50;;;0.40;;
26578;SDS011;14227;47.674;19.320;2023-08-06T13:50:44;3.03;;;0.50;;
26578;SDS011;14227;47.674;19.320;2023-08-06T13:53:13;4.22;;;0.63;;
26578;SDS011;14227;47.674;19.320;2023-08-06T13:55:39;1.40;;;0.65;;
26578;SDS011;14227;47.674;19.320;2023-08-06T13:58:04;4.45;;;0.55;;
26578;SDS011;14227;47.674;19.320;2023-08-06T14:00:32;2.63;;;0.82;;
26578;SDS011;14227;47.674;19.320;2023-08-06T14:03:11;1.38;;;0.60;;
26578;SDS011;14227;47.674;19.320;2023-08-06T14:05:37;0.57;;;0.50;;
26578;SDS011;14227;47.674;19.320;2023-08-06T14:08:04;0.75;;;0.60;;
26578;SDS011;14227;47.674;19.320;2023-08-06T14:10:30;0.93;;;0.60;;
26578;SDS011;14227;47.674;19.320;2023-08-06T14:12:56;3.50;;;0.88;;
26578;SDS011;14227;47.674;19.320;2023-08-06T14:15:23;0.75;;;0.75;;
26578;SDS011;14227;47.674;19.320;2023-08-06T14:17:49;1.75;;;0.90;;
26578;SDS011;14227;47.674;19.320;2023-08-06T14:20:16;1.95;;;1.00;;
26578;SDS011;14227;47.674;19.320;2023-08-06T14:22:41;2.65;;;1.00;;
26578;SDS011;14227;47.674;19.320;2023-08-06T14:25:07;1.55;;;0.90;;
26578;SDS011;14227;47.674;19.320;2023-08-06T14:27:33;0.73;;;0.73;;
26578;SDS011;14227;47.674;19.320;2023-08-06T14:30:13;1.67;;;0.82;;
26578;SDS011;14227;47.674;19.320;2023-08-06T14:32:40;0.93;;;0.75;;
26578;SDS011;14227;47.674;19.320;2023-08-06T14:35:15;1.13;;;1.02;;
26578;SDS011;14227;47.674;19.320;2023-08-06T14:37:41;1.38;;;0.93;;
26578;SDS011;14227;47.674;19.320;2023-08-06T14:40:10;2.80;;;1.25;;
26578;SDS011;14227;47.674;19.320;2023-08-06T14:42:36;1.40;;;1.30;;
26578;SDS011;14227;47.674;19.320;2023-08-06T14:45:04;1.65;;;1.30;;
26578;SDS011;14227;47.674;19.320;2023-08-06T14:47:30;1.30;;;1.20;;
26578;SDS011;14227;47.674;19.320;2023-08-06T14:50:04;3.85;;;1.20;;
26578;SDS011;14227;47.674;19.320;2023-08-06T14:55:17;2.40;;;1.40;;
26578;SDS011;14227;47.674;19.320;2023-08-06T14:58:19;2.07;;;1.50;;
26578;SDS011;14227;47.674;19.320;2023-08-06T15:00:55;1.52;;;1.38;;
26578;SDS011;14227;47.674;19.320;2023-08-06T15:03:20;1.65;;;1.40;;
26578;SDS011;14227;47.674;19.320;2023-08-06T15:05:57;2.15;;;1.30;;
26578;SDS011;14227;47.674;19.320;2023-08-06T15:09:01;1.25;;;1.15;;
26578;SDS011;14227;47.674;19.320;2023-08-06T15:11:32;2.67;;;1.25;;
26578;SDS011;14227;47.674;19.320;2023-08-06T15:16:46;3.03;;;1.48;;
26578;SDS011;14227;47.674;19.320;2023-08-06T15:19:28;1.98;;;1.60;;
26578;SDS011;14227;47.674;19.320;2023-08-06T15:21:55;2.30;;;1.73;;
26578;SDS011;14227;47.674;19.320;2023-08-06T15:24:21;1.70;;;1.60;;
26578;SDS011;14227;47.674;19.320;2023-08-06T15:27:32;2.10;;;1.80;;
26578;SDS011;14227;47.674;19.320;2023-08-06T15:30:06;2.92;;;2.10;;
26578;SDS011;14227;47.674;19.320;2023-08-06T15:32:42;3.00;;;1.65;;
26578;SDS011;14227;47.674;19.320;2023-08-06T15:35:10;4.43;;;1.55;;
26578;SDS011;14227;47.674;19.320;2023-08-06T15:37:57;3.00;;;2.05;;
26578;SDS011;14227;47.674;19.320;2023-08-06T15:40:24;1.95;;;1.73;;
26578;SDS011;14227;47.674;19.320;2023-08-06T15:42:53;4.80;;;1.88;;
26578;SDS011;14227;47.674;19.320;2023-08-06T15:45:43;4.97;;;1.90;;
26578;SDS011;14227;47.674;19.320;2023-08-06T15:48:27;1.98;;;1.88;;
26578;SDS011;14227;47.674;19.320;2023-08-06T15:53:40;3.45;;;1.75;;
26578;SDS011;14227;47.674;19.320;2023-08-06T15:56:13;2.75;;;1.80;;
26578;SDS011;14227;47.674;19.320;2023-08-06T15:58:44;2.65;;;1.98;;
26578;SDS011;14227;47.674;19.320;2023-08-06T16:01:14;6.05;;;2.40;;
26578;SDS011;14227;47.674;19.320;2023-08-06T16:03:57;3.05;;;2.00;;
26578;SDS011;14227;47.674;19.320;2023-08-06T16:09:41;1.85;;;1.75;;
26578;SDS011;14227;47.674;19.320;2023-08-06T16:12:15;2.08;;;1.80;;
26578;SDS011;14227;47.674;19.320;2023-08-06T16:15:10;3.67;;;1.80;;
26578;SDS011;14227;47.674;19.320;2023-08-06T16:17:44;2.63;;;1.75;;
26578;SDS011;14227;47.674;19.320;2023-08-06T16:23:21;2.10;;;1.98;;
26578;SDS011;14227;47.674;19.320;2023-08-06T16:25:59;3.60;;;2.13;;
26578;SDS011;14227;47.674;19.320;2023-08-06T16:28:30;6.07;;;2.47;;
26578;SDS011;14227;47.674;19.320;2023-08-06T16:31:57;3.35;;;2.10;;
26578;SDS011;14227;47.674;19.320;2023-08-06T16:35:20;2.42;;;2.00;;
26578;SDS011;14227;47.674;19.320;2023-08-06T16:37:57;3.38;;;2.03;;
26578;SDS011;14227;47.674;19.320;2023-08-06T16:40:24;2.72;;;2.53;;
26578;SDS011;14227;47.674;19.320;2023-08-06T16:43:28;2.40;;;2.20;;
26578;SDS011;14227;47.674;19.320;2023-08-06T16:45:59;2.67;;;2.28;;
26578;SDS011;14227;47.674;19.320;2023-08-06T16:49:04;2.40;;;2.20;;
26578;SDS011;14227;47.674;19.320;2023-08-06T16:51:31;3.97;;;2.03;;
26578;SDS011;14227;47.674;19.320;2023-08-06T17:03:05;2.40;;;2.20;;
26578;SDS011;14227;47.674;19.320;2023-08-06T17:05:30;4.13;;;2.47;;
26578;SDS011;14227;47.674;19.320;2023-08-06T17:08:19;2.30;;;2.10;;
26578;SDS011;14227;47.674;19.320;2023-08-06T17:11:12;4.13;;;2.00;;
26578;SDS011;14227;47.674;19.320;2023-08-06T17:13:45;4.60;;;2.15;;
26578;SDS011;14227;47.674;19.320;2023-08-06T17:20:02;5.72;;;2.30;;
26578;SDS011;14227;47.674;19.320;2023-08-06T17:23:30;2.85;;;2.08;;
26578;SDS011;14227;47.674;19.320;2023-08-06T17:26:13;7.13;;;2.28;;
26578;SDS011;14227;47.674;19.320;2023-08-06T17:29:34;3.63;;;2.20;;
26578;SDS011;14227;47.674;19.320;2023-08-06T17:39:19;2.90;;;2.20;;
26578;SDS011;14227;47.674;19.320;2023-08-06T17:42:44;2.60;;;2.40;;
26578;SDS011;14227;47.674;19.320;2023-08-06T17:45:14;2.35;;;2.15;;
26578;SDS011;14227;47.674;19.320;2023-08-06T17:48:18;2.92;;;2.40;;
26578;SDS011;14227;47.674;19.320;2023-08-06T17:52:14;1.75;;;1.65;;
26578;SDS011;14227;47.674;19.320;2023-08-06T17:55:14;2.17;;;1.90;;
26578;SDS011;14227;47.674;19.320;2023-08-06T17:58:52;3.38;;;2.10;;
26578;SDS011;14227;47.674;19.320;2023-08-06T18:05:21;3.75;;;2.10;;
26578;SDS011;14227;47.674;19.320;2023-08-06T18:12:07;5.20;;;2.40;;
26578;SDS011;14227;47.674;19.320;2023-08-06T18:14:51;3.92;;;2.25;;
26578;SDS011;14227;47.674;19.320;2023-08-06T18:21:51;3.83;;;2.40;;
26578;SDS011;14227;47.674;19.320;2023-08-06T18:24:38;3.92;;;2.47;;
26578;SDS011;14227;47.674;19.320;2023-08-06T18:27:42;2.70;;;2.50;;
26578;SDS011;14227;47.674;19.320;2023-08-06T18:34:12;2.90;;;2.60;;
26578;SDS011;14227;47.674;19.320;2023-08-06T18:40:57;5.07;;;2.58;;
26578;SDS011;14227;47.674;19.320;2023-08-06T18:47:08;2.90;;;2.67;;
26578;SDS011;14227;47.674;19.320;2023-08-06T18:49:41;5.93;;;3.03;;
26578;SDS011;14227;47.674;19.320;2023-08-06T18:53:13;3.50;;;3.20;;
26578;SDS011;14227;47.674;19.320;2023-08-06T18:56:47;3.53;;;3.25;;
26578;SDS011;14227;47.674;19.320;2023-08-06T19:02:36;4.20;;;3.42;;
26578;SDS011;14227;47.674;19.320;2023-08-06T19:12:13;3.35;;;3.05;;
26578;SDS011;14227;47.674;19.320;2023-08-06T19:14:47;3.92;;;3.53;;
26578;SDS011;14227;47.674;19.320;2023-08-06T19:25:39;5.75;;;3.50;;
26578;SDS011;14227;47.674;19.320;2023-08-06T19:29:10;6.05;;;3.85;;
26578;SDS011;14227;47.674;19.320;2023-08-06T19:35:30;5.30;;;3.85;;
26578;SDS011;14227;47.674;19.320;2023-08-06T19:41:25;6.90;;;3.90;;
26578;SDS011;14227;47.674;19.320;2023-08-06T19:44:38;4.18;;;3.63;;
26578;SDS011;14227;47.674;19.320;2023-08-06T19:47:09;3.92;;;3.40;;
26578;SDS011;14227;47.674;19.320;2023-08-06T19:50:23;6.20;;;3.55;;
26578;SDS011;14227;47.674;19.320;2023-08-06T19:56:23;5.82;;;3.63;;
26578;SDS011;14227;47.674;19.320;2023-08-06T19:59:34;4.40;;;3.55;;
26578;SDS011;14227;47.674;19.320;2023-08-06T20:02:22;4.25;;;3.80;;